createdAt,value
2023-05-16T00:00:52.605Z,99.90
2023-05-16T00:03:19.506Z,99.90
2023-05-16T00:05:46.250Z,99.90
2023-05-16T00:08:12.934Z,99.90
2023-05-16T00:13:06.688Z,99.90
2023-05-16T00:15:34.243Z,99.90
2023-05-16T00:18:01.087Z,99.90
2023-05-16T00:20:28.761Z,99.90
2023-05-16T00:22:55.745Z,99.90
2023-05-16T00:25:23.471Z,99.90
2023-05-16T00:27:50.310Z,99.90
2023-05-16T00:30:17.192Z,99.90
2023-05-16T00:32:44.549Z,99.90
2023-05-16T00:35:11.697Z,99.90
2023-05-16T00:37:38.786Z,99.90
2023-05-16T00:40:06.792Z,99.90
2023-05-16T00:42:33.581Z,99.90
2023-05-16T00:45:00.263Z,99.90
2023-05-16T00:47:27.075Z,99.90
2023-05-16T00:49:54.727Z,99.90
2023-05-16T00:52:21.498Z,99.90
2023-05-16T00:54:48.290Z,99.90
2023-05-16T00:57:16.033Z,99.90
2023-05-16T00:59:43.694Z,99.90
2023-05-16T01:04:37.555Z,99.90
2023-05-16T01:07:05.290Z,99.90
2023-05-16T01:09:32.480Z,99.90
2023-05-16T01:12:08.861Z,99.90
2023-05-16T01:14:44.881Z,99.90
2023-05-16T01:17:20.002Z,99.90
2023-05-16T01:20:04.106Z,99.90
2023-05-16T01:22:46.889Z,99.90
2023-05-16T01:25:28.175Z,99.90
2023-05-16T01:27:58.595Z,99.90
2023-05-16T01:30:25.305Z,99.90
2023-05-16T01:32:52.146Z,99.90
2023-05-16T01:35:18.989Z,99.90
2023-05-16T01:37:49.482Z,99.90
2023-05-16T01:40:23.768Z,99.90
2023-05-16T01:42:54.204Z,99.90
2023-05-16T01:45:26.953Z,99.90
2023-05-16T01:48:03.794Z,99.90
2023-05-16T01:50:33.985Z,99.90
2023-05-16T01:53:08.387Z,99.90
2023-05-16T01:55:45.216Z,99.90
2023-05-16T01:58:13.474Z,99.90
2023-05-16T02:00:41.314Z,99.90
2023-05-16T02:03:08.328Z,99.90
2023-05-16T02:05:35.351Z,99.90
2023-05-16T02:08:02.111Z,99.90
2023-05-16T02:10:28.892Z,99.90
2023-05-16T02:12:55.705Z,99.90
2023-05-16T02:15:22.389Z,99.90
2023-05-16T02:17:49.977Z,99.90
2023-05-16T02:20:16.748Z,99.90
2023-05-16T02:22:46.311Z,99.90
2023-05-16T02:25:14.762Z,99.90
2023-05-16T02:27:42.314Z,99.90
2023-05-16T02:30:10.095Z,99.90
2023-05-16T02:32:36.839Z,99.90
2023-05-16T02:35:05.088Z,99.90
2023-05-16T02:37:31.802Z,99.90
2023-05-16T02:39:58.518Z,99.90
2023-05-16T02:42:27.135Z,99.90
2023-05-16T02:44:53.834Z,99.90
2023-05-16T02:47:20.761Z,99.90
2023-05-16T02:49:47.449Z,99.90
2023-05-16T02:52:14.902Z,99.90
2023-05-16T02:54:41.619Z,99.90
2023-05-16T02:57:08.358Z,99.90
2023-05-16T02:59:35.563Z,99.90
2023-05-16T03:02:03.121Z,99.90
2023-05-16T03:04:29.966Z,99.90
2023-05-16T03:06:56.786Z,99.90
2023-05-16T03:09:24.130Z,99.90
2023-05-16T03:11:50.837Z,99.90
2023-05-16T03:14:17.668Z,99.90
2023-05-16T03:16:44.956Z,99.90
2023-05-16T03:19:11.823Z,99.90
2023-05-16T03:21:38.564Z,99.90
2023-05-16T03:24:06.035Z,99.90
2023-05-16T03:26:33.572Z,99.90
2023-05-16T03:29:00.359Z,99.90
2023-05-16T03:31:27.070Z,99.90
2023-05-16T03:33:53.792Z,99.90
2023-05-16T03:36:22.205Z,99.90
2023-05-16T03:38:48.966Z,99.90
2023-05-16T03:41:15.776Z,99.90
2023-05-16T03:43:43.127Z,99.90
2023-05-16T03:46:09.870Z,99.90
2023-05-16T03:48:36.564Z,99.90
2023-05-16T03:51:03.367Z,99.90
2023-05-16T03:53:30.154Z,99.90
2023-05-16T03:55:56.786Z,99.90
2023-05-16T03:58:23.469Z,99.90
2023-05-16T04:00:50.865Z,99.90
2023-05-16T04:03:17.651Z,99.90
2023-05-16T04:05:44.368Z,99.90
2023-05-16T04:08:11.243Z,99.90
2023-05-16T04:10:37.906Z,99.90
2023-05-16T04:13:04.587Z,99.90
2023-05-16T04:15:31.378Z,99.90
2023-05-16T04:17:59.074Z,99.90
2023-05-16T04:20:26.003Z,99.90
2023-05-16T04:22:52.837Z,99.90
2023-05-16T04:25:19.530Z,99.90
2023-05-16T04:27:46.152Z,99.90
2023-05-16T04:30:13.960Z,99.90
2023-05-16T04:32:40.664Z,99.90
2023-05-16T04:35:08.927Z,99.90
2023-05-16T04:37:35.639Z,99.90
2023-05-16T04:40:02.511Z,99.90
2023-05-16T04:42:29.233Z,99.90
2023-05-16T04:44:56.443Z,99.90
2023-05-16T04:47:23.169Z,99.90
2023-05-16T04:49:49.927Z,99.90
2023-05-16T04:52:17.317Z,99.90
2023-05-16T04:54:43.985Z,99.90
2023-05-16T04:57:10.643Z,99.90
2023-05-16T04:59:37.947Z,99.90
2023-05-16T05:02:05.168Z,99.90
2023-05-16T05:04:31.976Z,99.90
2023-05-16T05:06:59.413Z,99.90
2023-05-16T05:09:26.750Z,99.90
2023-05-16T05:11:53.399Z,99.90
2023-05-16T05:14:20.061Z,99.90
2023-05-16T05:16:46.820Z,99.90
2023-05-16T05:19:13.649Z,99.90
2023-05-16T05:21:40.429Z,99.90
2023-05-16T05:24:07.252Z,99.90
2023-05-16T05:26:34.622Z,99.90
2023-05-16T05:29:05.477Z,99.90
2023-05-16T05:31:33.101Z,99.90
2023-05-16T05:34:00.221Z,99.90
2023-05-16T05:36:26.971Z,99.90
2023-05-16T05:38:53.701Z,99.90
2023-05-16T05:41:21.191Z,99.90
2023-05-16T05:43:48.630Z,99.90
2023-05-16T05:46:16.637Z,99.90
2023-05-16T05:48:44.300Z,99.90
2023-05-16T05:51:13.362Z,99.90
2023-05-16T05:53:40.204Z,99.90
2023-05-16T05:56:06.983Z,99.90
2023-05-16T05:58:33.778Z,99.90
2023-05-16T06:01:01.776Z,99.90
2023-05-16T06:03:28.633Z,99.90
2023-05-16T06:05:55.589Z,99.90
2023-05-16T06:08:22.363Z,99.90
2023-05-16T06:10:48.973Z,99.90
2023-05-16T06:13:15.614Z,99.90
2023-05-16T06:15:42.260Z,99.90
2023-05-16T06:18:09.731Z,99.90
2023-05-16T06:20:36.387Z,99.90
2023-05-16T06:23:03.101Z,99.90
2023-05-16T06:25:29.939Z,99.90
2023-05-16T06:27:56.693Z,99.90
2023-05-16T06:30:23.326Z,99.90
2023-05-16T06:32:50.323Z,99.90
2023-05-16T06:35:17.853Z,99.90
2023-05-16T06:37:44.518Z,99.90
2023-05-16T06:40:12.110Z,99.90
2023-05-16T06:42:39.092Z,99.90
2023-05-16T06:45:07.232Z,99.90
2023-05-16T06:47:33.954Z,99.90
2023-05-16T06:50:00.723Z,99.90
2023-05-16T06:52:28.123Z,99.90
2023-05-16T06:54:54.860Z,99.90
2023-05-16T06:57:21.635Z,99.90
2023-05-16T06:59:48.311Z,99.90
2023-05-16T07:02:15.044Z,99.90
2023-05-16T07:04:41.934Z,99.90
2023-05-16T07:07:11.405Z,99.90
2023-05-16T07:09:38.813Z,99.90
2023-05-16T07:12:06.210Z,99.90
2023-05-16T07:14:32.956Z,99.90
2023-05-16T07:16:59.900Z,99.90
2023-05-16T07:19:26.843Z,99.90
2023-05-16T07:21:53.725Z,99.90
2023-05-16T07:24:20.682Z,99.90
2023-05-16T07:26:48.031Z,99.90
2023-05-16T07:29:14.977Z,99.90
2023-05-16T07:31:41.789Z,99.90
2023-05-16T07:34:09.316Z,99.90
2023-05-16T07:36:36.282Z,99.90
2023-05-16T07:39:03.354Z,99.90
2023-05-16T07:41:30.684Z,99.90
2023-05-16T07:43:58.128Z,99.90
2023-05-16T07:46:25.049Z,99.90
2023-05-16T07:48:51.791Z,99.90
2023-05-16T07:51:18.488Z,99.90
2023-05-16T07:53:45.671Z,99.90
2023-05-16T07:56:12.578Z,99.90
2023-05-16T07:58:39.463Z,99.90
2023-05-16T08:01:06.881Z,99.90
2023-05-16T08:03:35.026Z,99.90
2023-05-16T08:06:02.043Z,99.90
2023-05-16T08:08:28.974Z,99.90
2023-05-16T08:10:56.179Z,99.90
2023-05-16T08:13:23.054Z,99.90
2023-05-16T08:15:49.970Z,99.90
2023-05-16T08:18:18.792Z,99.90
2023-05-16T08:20:46.721Z,99.90
2023-05-16T08:23:14.541Z,99.90
2023-05-16T08:25:41.534Z,99.90
2023-05-16T08:28:08.308Z,99.90
2023-05-16T08:30:35.055Z,99.90
2023-05-16T08:33:10.482Z,99.90
2023-05-16T08:35:42.177Z,99.90
2023-05-16T08:38:09.092Z,99.90
2023-05-16T08:40:36.739Z,99.90
2023-05-16T08:43:04.537Z,99.90
2023-05-16T08:45:31.601Z,99.90
2023-05-16T08:48:01.534Z,99.90
2023-05-16T08:50:31.277Z,99.90
2023-05-16T08:53:05.597Z,99.90
2023-05-16T08:55:32.551Z,99.90
2023-05-16T08:58:02.331Z,99.90
2023-05-16T09:00:29.537Z,99.90
2023-05-16T09:02:56.622Z,99.90
2023-05-16T09:05:23.784Z,99.90
2023-05-16T09:07:50.549Z,99.90
2023-05-16T09:10:18.498Z,99.90
2023-05-16T09:12:45.369Z,99.90
2023-05-16T09:15:12.442Z,99.90
2023-05-16T09:17:43.166Z,99.90
2023-05-16T09:20:12.872Z,99.90
2023-05-16T09:22:40.369Z,99.90
2023-05-16T09:25:12.662Z,99.90
2023-05-16T09:27:42.854Z,99.90
2023-05-16T09:30:10.519Z,99.90
2023-05-16T09:32:42.805Z,99.90
2023-05-16T09:35:11.308Z,99.90
2023-05-16T09:37:37.954Z,99.90
2023-05-16T09:40:06.489Z,99.90
2023-05-16T09:42:33.273Z,99.90
2023-05-16T09:45:03.683Z,99.90
2023-05-16T09:47:30.440Z,99.90
2023-05-16T09:49:57.438Z,99.90
2023-05-16T09:52:26.895Z,99.90
2023-05-16T09:54:54.581Z,99.90
2023-05-16T09:57:22.812Z,99.90
2023-05-16T09:59:50.149Z,99.90
2023-05-16T10:02:17.759Z,99.90
2023-05-16T10:04:44.780Z,99.90
2023-05-16T10:07:13.227Z,99.90
2023-05-16T10:09:40.542Z,99.90
2023-05-16T10:12:11.612Z,99.90
2023-05-16T10:14:40.617Z,99.90
2023-05-16T10:17:08.252Z,99.90
2023-05-16T10:19:39.443Z,99.90
2023-05-16T10:22:07.241Z,99.90
2023-05-16T10:24:41.561Z,99.90
2023-05-16T10:27:09.150Z,99.90
2023-05-16T10:29:46.812Z,99.90
2023-05-16T10:32:23.030Z,99.90
2023-05-16T10:34:51.181Z,99.90
2023-05-16T10:37:18.219Z,99.90
2023-05-16T10:39:45.963Z,99.90
2023-05-16T10:42:17.521Z,99.90
2023-05-16T10:44:54.472Z,99.90
2023-05-16T10:47:29.126Z,99.90
2023-05-16T10:49:56.641Z,99.90
2023-05-16T10:52:33.579Z,99.90
2023-05-16T10:55:03.095Z,99.90
2023-05-16T10:57:33.883Z,99.90
2023-05-16T11:00:01.188Z,99.90
2023-05-16T11:02:30.154Z,99.90
2023-05-16T11:04:58.813Z,99.90
2023-05-16T11:07:30.003Z,99.90
2023-05-16T11:10:08.114Z,99.90
2023-05-16T11:12:45.836Z,99.90
2023-05-16T11:15:26.948Z,99.90
2023-05-16T11:18:05.604Z,99.90
2023-05-16T11:20:35.289Z,99.90
2023-05-16T11:23:22.133Z,99.90
2023-05-16T11:25:54.029Z,99.90
2023-05-16T11:28:24.668Z,99.90
2023-05-16T11:30:54.661Z,99.90
2023-05-16T11:33:21.820Z,99.90
2023-05-16T11:36:14.567Z,99.90
2023-05-16T11:38:43.117Z,99.90
2023-05-16T11:41:09.936Z,99.90
2023-05-16T11:43:41.040Z,99.90
2023-05-16T11:46:11.341Z,99.90
2023-05-16T11:48:38.390Z,99.90
2023-05-16T11:51:07.128Z,99.90
2023-05-16T11:53:34.177Z,99.90
2023-05-16T11:56:01.620Z,99.90
2023-05-16T11:58:28.904Z,99.90
2023-05-16T12:00:55.648Z,99.90
2023-05-16T12:03:23.411Z,99.90
2023-05-16T12:05:52.464Z,99.90
2023-05-16T12:08:21.452Z,99.90
2023-05-16T12:10:49.796Z,99.90
2023-05-16T12:13:20.525Z,99.90
2023-05-16T12:15:47.949Z,99.90
2023-05-16T12:18:15.448Z,99.90
2023-05-16T12:20:43.620Z,99.90
2023-05-16T12:23:12.104Z,99.90
2023-05-16T12:25:45.505Z,99.90
2023-05-16T12:28:13.534Z,99.90
2023-05-16T12:30:41.550Z,99.90
2023-05-16T12:33:10.680Z,99.90
2023-05-16T12:35:39.481Z,99.90
2023-05-16T12:38:07.431Z,99.90
2023-05-16T12:40:36.573Z,99.90
2023-05-16T12:43:03.966Z,99.90
2023-05-16T12:45:31.832Z,99.90
2023-05-16T12:48:05.943Z,99.90
2023-05-16T12:50:33.495Z,99.90
2023-05-16T12:53:03.289Z,99.90
2023-05-16T12:55:30.303Z,99.90
2023-05-16T12:57:57.632Z,99.90
2023-05-16T13:00:25.853Z,99.90
2023-05-16T13:02:52.821Z,99.90
2023-05-16T13:05:22.639Z,99.90
2023-05-16T13:07:50.960Z,99.90
2023-05-16T13:10:18.504Z,99.90
2023-05-16T13:12:45.864Z,99.90
2023-05-16T13:15:12.710Z,99.90
2023-05-16T13:17:41.571Z,99.90
2023-05-16T13:20:09.351Z,99.90
2023-05-16T13:22:36.451Z,99.90
2023-05-16T13:25:03.954Z,99.90
2023-05-16T13:27:30.676Z,99.90
2023-05-16T13:29:57.764Z,99.70
2023-05-16T13:32:24.593Z,98.70
2023-05-16T13:34:52.397Z,99.30
2023-05-16T13:37:19.181Z,99.00
2023-05-16T13:39:45.994Z,97.80
2023-05-16T13:42:12.776Z,97.10
2023-05-16T13:44:39.539Z,96.50
2023-05-16T13:47:06.284Z,95.60
2023-05-16T13:49:32.981Z,95.30
2023-05-16T13:52:00.890Z,95.70
2023-05-16T13:54:27.692Z,94.40
2023-05-16T13:56:55.673Z,95.70
2023-05-16T13:59:44.937Z,97.10
2023-05-16T14:02:09.366Z,95.50
2023-05-16T14:04:36.073Z,96.00
2023-05-16T14:07:03.774Z,95.50
2023-05-16T14:09:30.942Z,96.10
2023-05-16T14:11:57.747Z,96.30
2023-05-16T14:14:24.504Z,95.30
2023-05-16T14:16:51.281Z,91.90
2023-05-16T14:19:19.636Z,91.30
2023-05-16T14:21:46.570Z,91.50
2023-05-16T14:24:13.986Z,92.70
2023-05-16T14:26:40.837Z,92.40
2023-05-16T14:29:07.663Z,93.40
2023-05-16T14:31:35.594Z,94.00
2023-05-16T14:34:02.375Z,94.00
2023-05-16T14:36:29.321Z,93.60
2023-05-16T14:38:56.072Z,94.10
2023-05-16T14:41:23.858Z,94.20
2023-05-16T14:43:51.196Z,93.90
2023-05-16T14:46:18.016Z,93.50
2023-05-16T14:48:44.817Z,93.10
2023-05-16T14:51:11.829Z,93.20
2023-05-16T14:53:38.583Z,90.10
2023-05-16T14:56:05.494Z,82.00
2023-05-16T14:58:32.904Z,71.60
2023-05-16T15:00:59.637Z,65.20
2023-05-16T15:03:26.420Z,71.30
2023-05-16T15:05:54.002Z,77.80
2023-05-16T15:08:21.579Z,81.90
2023-05-16T15:10:48.305Z,78.00
2023-05-16T15:13:15.007Z,79.60
2023-05-16T15:15:42.356Z,80.80
2023-05-16T15:18:10.407Z,82.50
2023-05-16T15:20:37.447Z,83.90
2023-05-16T15:23:04.212Z,83.10
2023-05-16T15:25:31.120Z,77.90
2023-05-16T15:27:57.923Z,74.80
2023-05-16T15:30:24.935Z,70.70
2023-05-16T15:32:52.543Z,71.30
2023-05-16T15:35:19.303Z,69.30
2023-05-16T15:37:46.023Z,70.30
2023-05-16T15:40:13.833Z,75.00
2023-05-16T15:42:43.431Z,75.90
2023-05-16T15:45:11.050Z,77.70
2023-05-16T15:47:37.801Z,74.50
2023-05-16T15:50:06.108Z,76.40
2023-05-16T15:52:35.109Z,77.10
2023-05-16T15:55:02.289Z,77.50
2023-05-16T15:57:30.283Z,76.90
2023-05-16T15:59:57.075Z,74.00
2023-05-16T16:02:23.865Z,75.60
2023-05-16T16:04:51.197Z,76.50
2023-05-16T16:07:18.605Z,74.10
2023-05-16T16:09:45.477Z,77.70
2023-05-16T16:12:12.265Z,75.50
2023-05-16T16:14:39.142Z,77.00
2023-05-16T16:17:05.865Z,73.80
2023-05-16T16:19:32.723Z,74.40
2023-05-16T16:21:59.412Z,75.00
2023-05-16T16:24:26.803Z,76.50
2023-05-16T16:26:53.695Z,77.20
2023-05-16T16:29:20.578Z,76.00
2023-05-16T16:31:47.408Z,78.30
2023-05-16T16:34:14.205Z,75.00
2023-05-16T16:36:41.425Z,74.90
2023-05-16T16:39:09.682Z,75.00
2023-05-16T16:41:37.192Z,74.90
2023-05-16T16:44:04.081Z,75.00
2023-05-16T16:46:30.817Z,75.00
2023-05-16T16:48:57.562Z,75.90
2023-05-16T16:51:24.278Z,77.30
2023-05-16T16:53:50.971Z,78.40
2023-05-16T16:56:17.694Z,78.10
2023-05-16T16:58:45.210Z,78.60
2023-05-16T17:01:12.146Z,82.60
2023-05-16T17:03:39.047Z,78.60
2023-05-16T17:06:06.120Z,77.30
2023-05-16T17:08:32.894Z,74.60
2023-05-16T17:10:59.756Z,74.80
2023-05-16T17:13:32.777Z,76.40
2023-05-16T17:16:00.746Z,74.40
2023-05-16T17:18:27.649Z,74.00
2023-05-16T17:20:55.302Z,74.60
2023-05-16T17:23:22.290Z,81.00
2023-05-16T17:25:49.009Z,75.20
2023-05-16T17:28:15.782Z,75.00
2023-05-16T17:30:42.541Z,75.00
2023-05-16T17:33:09.962Z,76.10
2023-05-16T17:35:36.994Z,77.20
2023-05-16T17:38:04.401Z,78.30
2023-05-16T17:40:31.135Z,78.70
2023-05-16T17:42:58.039Z,79.60
2023-05-16T17:45:24.996Z,80.00
2023-05-16T17:47:51.771Z,80.40
2023-05-16T17:50:21.108Z,80.80
2023-05-16T17:52:47.871Z,81.00
2023-05-16T17:55:14.663Z,81.80
2023-05-16T17:57:41.814Z,82.20
2023-05-16T18:00:09.565Z,82.60
2023-05-16T18:02:38.627Z,81.30
2023-05-16T18:05:06.692Z,81.60
2023-05-16T18:07:34.182Z,81.70
2023-05-16T18:10:00.926Z,81.60
2023-05-16T18:12:27.834Z,81.40
2023-05-16T18:14:54.539Z,82.30
2023-05-16T18:17:21.278Z,83.10
2023-05-16T18:19:48.072Z,84.20
2023-05-16T18:22:14.886Z,84.60
2023-05-16T18:24:42.343Z,85.30
2023-05-16T18:27:09.284Z,84.90
2023-05-16T18:29:36.416Z,85.80
2023-05-16T18:32:03.361Z,85.20
2023-05-16T18:34:30.876Z,84.90
2023-05-16T18:36:57.620Z,85.10
2023-05-16T18:39:24.382Z,85.10
2023-05-16T18:41:51.824Z,85.40
2023-05-16T18:44:19.593Z,85.70
2023-05-16T18:46:46.688Z,85.90
2023-05-16T18:49:13.863Z,86.40
2023-05-16T18:51:40.716Z,87.50
2023-05-16T18:54:07.470Z,87.20
2023-05-16T18:56:34.259Z,87.70
2023-05-16T18:59:01.698Z,88.20
2023-05-16T19:01:28.575Z,88.60
2023-05-16T19:03:55.724Z,89.10
2023-05-16T19:06:22.595Z,89.80
2023-05-16T19:08:49.362Z,89.90
2023-05-16T19:11:16.880Z,90.00
2023-05-16T19:13:43.722Z,90.00
2023-05-16T19:16:11.472Z,90.10
2023-05-16T19:18:38.751Z,90.20
2023-05-16T19:21:07.317Z,90.20
2023-05-16T19:23:34.052Z,90.30
2023-05-16T19:26:00.871Z,90.50
2023-05-16T19:28:27.648Z,90.70
2023-05-16T19:30:54.766Z,90.80
2023-05-16T19:33:22.231Z,90.80
2023-05-16T19:35:50.798Z,90.90
2023-05-16T19:38:19.004Z,91.10
2023-05-16T19:40:45.921Z,91.20
2023-05-16T19:43:12.614Z,91.20
2023-05-16T19:45:39.389Z,91.30
2023-05-16T19:48:06.747Z,91.20
2023-05-16T19:50:34.208Z,90.80
2023-05-16T19:53:00.958Z,90.90
2023-05-16T19:55:28.523Z,90.70
2023-05-16T19:57:56.396Z,90.40
2023-05-16T20:00:23.322Z,90.50
2023-05-16T20:02:50.387Z,90.70
2023-05-16T20:05:21.645Z,90.80
2023-05-16T20:07:51.078Z,91.10
2023-05-16T20:10:21.138Z,91.10
2023-05-16T20:12:50.161Z,91.30
2023-05-16T20:15:18.418Z,91.50
2023-05-16T20:17:45.435Z,91.70
2023-05-16T20:20:13.278Z,91.80
2023-05-16T20:22:40.801Z,92.10
2023-05-16T20:25:11.460Z,92.30
2023-05-16T20:27:40.295Z,92.50
2023-05-16T20:30:09.317Z,92.70
2023-05-16T20:32:36.448Z,92.80
2023-05-16T20:35:08.685Z,92.80
2023-05-16T20:37:35.707Z,92.90
2023-05-16T20:40:02.675Z,93.00
2023-05-16T20:42:30.077Z,93.10
2023-05-16T20:44:56.967Z,93.10
2023-05-16T20:49:50.912Z,92.90
2023-05-16T20:52:18.599Z,93.10
2023-05-16T20:54:46.284Z,93.00
2023-05-16T20:57:13.898Z,93.00
2023-05-16T20:59:41.668Z,93.10
2023-05-16T21:02:09.532Z,93.10
2023-05-16T21:04:38.873Z,93.20
2023-05-16T21:07:08.588Z,93.20
2023-05-16T21:09:37.499Z,93.50
2023-05-16T21:12:05.878Z,93.50
2023-05-16T21:14:36.852Z,93.60
2023-05-16T21:17:08.617Z,93.10
2023-05-16T21:19:38.572Z,93.90
2023-05-16T21:22:06.775Z,93.90
2023-05-16T21:24:34.843Z,94.10
2023-05-16T21:27:02.112Z,94.10
2023-05-16T21:29:29.030Z,94.20
2023-05-16T21:31:55.859Z,94.30
2023-05-16T21:34:23.406Z,94.30
2023-05-16T21:36:50.309Z,94.30
2023-05-16T21:39:17.146Z,94.50
2023-05-16T21:41:43.859Z,94.50
2023-05-16T21:44:12.771Z,94.60
2023-05-16T21:46:39.476Z,94.80
2023-05-16T21:49:06.299Z,95.20
2023-05-16T21:51:33.734Z,94.90
2023-05-16T21:54:02.440Z,95.00
2023-05-16T21:56:29.642Z,95.40
2023-05-16T21:58:57.203Z,95.20
2023-05-16T22:01:25.675Z,95.30
2023-05-16T22:03:52.557Z,95.40
2023-05-16T22:06:19.445Z,95.40
2023-05-16T22:08:47.301Z,95.60
2023-05-16T22:11:14.076Z,95.70
2023-05-16T22:13:40.938Z,95.80
2023-05-16T22:16:07.746Z,95.90
2023-05-16T22:18:34.594Z,96.00
2023-05-16T22:21:01.443Z,96.20
2023-05-16T22:23:28.159Z,96.50
2023-05-16T22:25:55.600Z,96.60
2023-05-16T22:28:22.341Z,96.90
2023-05-16T22:30:49.067Z,97.00
2023-05-16T22:33:16.085Z,97.20
2023-05-16T22:35:42.785Z,97.30
2023-05-16T22:38:09.579Z,97.60
2023-05-16T22:40:37.183Z,97.80
2023-05-16T22:43:06.345Z,98.00
2023-05-16T22:45:33.092Z,98.10
2023-05-16T22:47:59.897Z,98.20
2023-05-16T22:50:26.713Z,98.30
2023-05-16T22:52:53.498Z,98.40
2023-05-16T22:55:20.215Z,98.60
2023-05-16T22:57:46.953Z,98.60
2023-05-16T23:00:15.373Z,98.60
2023-05-16T23:02:42.120Z,99.00
2023-05-16T23:05:09.683Z,98.90
2023-05-16T23:07:36.430Z,99.00
2023-05-16T23:10:03.880Z,99.10
2023-05-16T23:12:30.720Z,99.30
2023-05-16T23:14:57.815Z,99.40
2023-05-16T23:17:25.161Z,99.40
2023-05-16T23:19:52.000Z,99.60
2023-05-16T23:22:18.798Z,99.70
2023-05-16T23:24:45.542Z,99.70
2023-05-16T23:27:12.274Z,99.90
2023-05-16T23:29:38.971Z,99.90
2023-05-16T23:32:06.358Z,99.90
2023-05-16T23:34:33.741Z,99.90
2023-05-16T23:37:03.562Z,99.90
2023-05-16T23:39:30.273Z,99.90
2023-05-16T23:41:58.033Z,99.90
2023-05-16T23:44:24.715Z,99.90
2023-05-16T23:46:51.391Z,99.90
2023-05-16T23:49:18.542Z,99.90
2023-05-16T23:54:19.328Z,99.90
2023-05-16T23:56:46.049Z,99.90
2023-05-16T23:59:12.779Z,99.90
